Terminal Aerodrome Forecast
Issued by NWS

Home | Current Version | Previous Version | Text Only | Print | Product List | Glossary On
Versions: 1 2 3 4 5 6 7 8 9 10 11 12 13 14 15 16 17 18
184
FTUS44 KLZK 281747
TAFHOT
TAF
KHOT 281747Z 2818/2918 26006KT P6SM FEW022
     FM290100 23006KT P6SM SCT100 SCT250
     FM291000 22002KT P6SM VCSH FEW012 SCT050 BKN080
     FM291600 24005KT P6SM FEW050 BKN080=

USA.gov is the U.S. government's official web portal to all federal, state and local government web resources and services.